sensor_id;sensor_type;location;lat;lon;timestamp;pressure;altitude;pressure_sealevel;temperature;humidity
76496;BME280;65329;52.544;4.662;2023-04-22T00:00:30;-18597.69;;;-139.74;0.00
76496;BME280;65329;52.544;4.662;2023-04-22T00:02:58;-18597.69;;;-139.74;0.00
76496;BME280;65329;52.544;4.662;2023-04-22T00:05:25;-18597.69;;;-139.74;0.00
76496;BME280;65329;52.544;4.662;2023-04-22T00:07:52;-18597.69;;;-139.74;0.00
76496;BME280;65329;52.544;4.662;2023-04-22T00:10:19;-18597.69;;;-139.74;0.00
76496;BME280;65329;52.544;4.662;2023-04-22T00:12:48;-18597.69;;;-139.74;0.00
76496;BME280;65329;52.544;4.662;2023-04-22T00:15:15;-18597.69;;;-139.74;0.00
76496;BME280;65329;52.544;4.662;2023-04-22T00:17:49;-18597.69;;;-139.74;0.00
76496;BME280;65329;52.544;4.662;2023-04-22T00:20:17;-18597.69;;;-139.74;0.00
76496;BME280;65329;52.544;4.662;2023-04-22T00:22:47;-18597.69;;;-139.74;0.00
76496;BME280;65329;52.544;4.662;2023-04-22T00:25:15;-18597.69;;;-139.74;0.00
76496;BME280;65329;52.544;4.662;2023-04-22T00:27:42;-18597.69;;;-139.74;0.00
76496;BME280;65329;52.544;4.662;2023-04-22T00:30:11;-18597.69;;;-139.74;0.00
76496;BME280;65329;52.544;4.662;2023-04-22T00:32:38;-18597.69;;;-139.74;0.00
76496;BME280;65329;52.544;4.662;2023-04-22T00:35:06;-18597.69;;;-139.74;0.00
76496;BME280;65329;52.544;4.662;2023-04-22T00:37:33;-18597.69;;;-139.74;0.00
76496;BME280;65329;52.544;4.662;2023-04-22T00:40:00;-18597.69;;;-139.74;0.00
76496;BME280;65329;52.544;4.662;2023-04-22T00:42:28;-18597.69;;;-139.74;0.00
76496;BME280;65329;52.544;4.662;2023-04-22T00:44:55;-18597.69;;;-139.74;0.00
76496;BME280;65329;52.544;4.662;2023-04-22T00:47:22;-18597.69;;;-139.74;0.00
76496;BME280;65329;52.544;4.662;2023-04-22T00:49:53;-18597.69;;;-139.74;0.00
76496;BME280;65329;52.544;4.662;2023-04-22T00:52:20;-18597.69;;;-139.74;0.00
76496;BME280;65329;52.544;4.662;2023-04-22T00:54:48;-18597.69;;;-139.74;0.00
76496;BME280;65329;52.544;4.662;2023-04-22T00:57:15;-18597.69;;;-139.74;0.00
76496;BME280;65329;52.544;4.662;2023-04-22T00:59:43;-18597.69;;;-139.74;0.00
76496;BME280;65329;52.544;4.662;2023-04-22T01:02:11;-18597.69;;;-139.74;0.00
76496;BME280;65329;52.544;4.662;2023-04-22T01:04:38;-18597.69;;;-139.74;0.00
76496;BME280;65329;52.544;4.662;2023-04-22T01:07:06;-18597.69;;;-139.74;0.00
76496;BME280;65329;52.544;4.662;2023-04-22T01:09:33;-18597.69;;;-139.74;0.00
76496;BME280;65329;52.544;4.662;2023-04-22T01:12:01;-18597.69;;;-139.74;0.00
76496;BME280;65329;52.544;4.662;2023-04-22T01:14:28;-18597.69;;;-139.74;0.00
76496;BME280;65329;52.544;4.662;2023-04-22T01:16:55;-18597.69;;;-139.74;0.00
76496;BME280;65329;52.544;4.662;2023-04-22T01:19:22;-18597.69;;;-139.74;0.00
76496;BME280;65329;52.544;4.662;2023-04-22T01:21:50;-18597.69;;;-139.74;0.00
76496;BME280;65329;52.544;4.662;2023-04-22T01:24:17;-18597.69;;;-139.74;0.00
76496;BME280;65329;52.544;4.662;2023-04-22T01:26:46;-18597.69;;;-139.74;0.00
76496;BME280;65329;52.544;4.662;2023-04-22T01:29:14;-18597.69;;;-139.74;0.00
76496;BME280;65329;52.544;4.662;2023-04-22T01:31:42;-18597.69;;;-139.74;0.00
76496;BME280;65329;52.544;4.662;2023-04-22T01:34:09;-18597.69;;;-139.74;0.00
76496;BME280;65329;52.544;4.662;2023-04-22T01:36:37;-18597.69;;;-139.74;0.00
76496;BME280;65329;52.544;4.662;2023-04-22T01:39:06;-18597.69;;;-139.74;0.00
76496;BME280;65329;52.544;4.662;2023-04-22T01:41:33;-18597.69;;;-139.74;0.00
76496;BME280;65329;52.544;4.662;2023-04-22T01:44:02;-18597.69;;;-139.74;0.00
76496;BME280;65329;52.544;4.662;2023-04-22T01:46:29;-18597.69;;;-139.74;0.00
76496;BME280;65329;52.544;4.662;2023-04-22T01:48:56;-18597.69;;;-139.74;0.00
76496;BME280;65329;52.544;4.662;2023-04-22T01:51:24;-18597.69;;;-139.74;0.00
76496;BME280;65329;52.544;4.662;2023-04-22T01:53:51;-18597.69;;;-139.74;0.00
76496;BME280;65329;52.544;4.662;2023-04-22T01:56:21;-18597.69;;;-139.74;0.00
76496;BME280;65329;52.544;4.662;2023-04-22T01:58:48;-18597.69;;;-139.74;0.00
76496;BME280;65329;52.544;4.662;2023-04-22T02:01:17;-18597.69;;;-139.74;0.00
76496;BME280;65329;52.544;4.662;2023-04-22T02:03:44;-18597.69;;;-139.74;0.00
76496;BME280;65329;52.544;4.662;2023-04-22T02:06:12;-18597.69;;;-139.74;0.00
76496;BME280;65329;52.544;4.662;2023-04-22T02:08:39;-18597.69;;;-139.74;0.00
76496;BME280;65329;52.544;4.662;2023-04-22T02:11:07;-18597.69;;;-139.74;0.00
76496;BME280;65329;52.544;4.662;2023-04-22T02:13:38;-18597.69;;;-139.74;0.00
76496;BME280;65329;52.544;4.662;2023-04-22T02:16:05;-18597.69;;;-139.74;0.00
76496;BME280;65329;52.544;4.662;2023-04-22T02:18:39;-18597.69;;;-139.74;0.00
76496;BME280;65329;52.544;4.662;2023-04-22T02:21:06;-18597.69;;;-139.74;0.00
76496;BME280;65329;52.544;4.662;2023-04-22T02:23:35;-18597.69;;;-139.74;0.00
76496;BME280;65329;52.544;4.662;2023-04-22T02:26:02;-18597.69;;;-139.74;0.00
76496;BME280;65329;52.544;4.662;2023-04-22T02:28:29;-18597.69;;;-139.74;0.00
76496;BME280;65329;52.544;4.662;2023-04-22T02:30:56;-18597.69;;;-139.74;0.00
76496;BME280;65329;52.544;4.662;2023-04-22T02:33:26;-18597.69;;;-139.74;0.00
76496;BME280;65329;52.544;4.662;2023-04-22T02:35:53;-18597.69;;;-139.74;0.00
76496;BME280;65329;52.544;4.662;2023-04-22T02:38:19;-18597.69;;;-139.74;0.00
76496;BME280;65329;52.544;4.662;2023-04-22T02:40:48;-18597.69;;;-139.74;0.00
76496;BME280;65329;52.544;4.662;2023-04-22T02:43:16;-18597.69;;;-139.74;0.00
76496;BME280;65329;52.544;4.662;2023-04-22T02:45:46;-18597.69;;;-139.74;0.00
76496;BME280;65329;52.544;4.662;2023-04-22T02:48:13;-18597.69;;;-139.74;0.00
76496;BME280;65329;52.544;4.662;2023-04-22T02:50:42;-18597.69;;;-139.74;0.00
76496;BME280;65329;52.544;4.662;2023-04-22T02:53:08;-18597.69;;;-139.74;0.00
76496;BME280;65329;52.544;4.662;2023-04-22T02:55:35;-18597.69;;;-139.74;0.00
76496;BME280;65329;52.544;4.662;2023-04-22T02:58:02;-18597.69;;;-139.74;0.00
76496;BME280;65329;52.544;4.662;2023-04-22T03:00:38;-18597.69;;;-139.74;0.00
76496;BME280;65329;52.544;4.662;2023-04-22T03:03:06;-18597.69;;;-139.74;0.00
76496;BME280;65329;52.544;4.662;2023-04-22T03:05:33;-18597.69;;;-139.74;0.00
76496;BME280;65329;52.544;4.662;2023-04-22T03:08:01;-18597.69;;;-139.74;0.00
76496;BME280;65329;52.544;4.662;2023-04-22T03:10:29;-18597.69;;;-139.74;0.00
76496;BME280;65329;52.544;4.662;2023-04-22T03:12:55;-18597.69;;;-139.74;0.00
76496;BME280;65329;52.544;4.662;2023-04-22T03:15:25;-18597.69;;;-139.74;0.00
76496;BME280;65329;52.544;4.662;2023-04-22T03:17:53;-18597.69;;;-139.74;0.00
76496;BME280;65329;52.544;4.662;2023-04-22T03:20:22;-18597.69;;;-139.74;0.00
76496;BME280;65329;52.544;4.662;2023-04-22T03:22:49;-18597.69;;;-139.74;0.00
76496;BME280;65329;52.544;4.662;2023-04-22T03:25:16;-18597.69;;;-139.74;0.00
76496;BME280;65329;52.544;4.662;2023-04-22T03:27:51;-18597.69;;;-139.74;0.00
76496;BME280;65329;52.544;4.662;2023-04-22T03:30:18;-18597.69;;;-139.74;0.00
76496;BME280;65329;52.544;4.662;2023-04-22T03:32:46;-18597.69;;;-139.74;0.00
76496;BME280;65329;52.544;4.662;2023-04-22T03:35:28;-18597.69;;;-139.74;0.00
76496;BME280;65329;52.544;4.662;2023-04-22T03:37:59;-18597.69;;;-139.74;0.00
76496;BME280;65329;52.544;4.662;2023-04-22T03:40:30;-18597.69;;;-139.74;0.00
76496;BME280;65329;52.544;4.662;2023-04-22T03:43:00;-18597.69;;;-139.74;0.00
76496;BME280;65329;52.544;4.662;2023-04-22T03:45:27;-18597.69;;;-139.74;0.00
76496;BME280;65329;52.544;4.662;2023-04-22T03:48:13;-18597.69;;;-139.74;0.00
76496;BME280;65329;52.544;4.662;2023-04-22T03:50:45;-18597.69;;;-139.74;0.00
76496;BME280;65329;52.544;4.662;2023-04-22T03:53:12;-18597.69;;;-139.74;0.00
76496;BME280;65329;52.544;4.662;2023-04-22T03:55:39;-18597.69;;;-139.74;0.00
76496;BME280;65329;52.544;4.662;2023-04-22T03:58:06;-18597.69;;;-139.74;0.00
76496;BME280;65329;52.544;4.662;2023-04-22T04:00:33;-18597.69;;;-139.74;0.00
76496;BME280;65329;52.544;4.662;2023-04-22T04:03:08;-18597.69;;;-139.74;0.00
76496;BME280;65329;52.544;4.662;2023-04-22T04:05:38;-18597.69;;;-139.74;0.00
76496;BME280;65329;52.544;4.662;2023-04-22T04:08:08;-18597.69;;;-139.74;0.00
76496;BME280;65329;52.544;4.662;2023-04-22T04:10:35;-18597.69;;;-139.74;0.00
76496;BME280;65329;52.544;4.662;2023-04-22T04:13:03;-18597.69;;;-139.74;0.00
76496;BME280;65329;52.544;4.662;2023-04-22T04:15:39;-18597.69;;;-139.74;0.00
76496;BME280;65329;52.544;4.662;2023-04-22T04:18:07;-18597.69;;;-139.74;0.00
76496;BME280;65329;52.544;4.662;2023-04-22T04:20:35;-18597.69;;;-139.74;0.00
76496;BME280;65329;52.544;4.662;2023-04-22T04:23:02;-18597.69;;;-139.74;0.00
76496;BME280;65329;52.544;4.662;2023-04-22T04:25:32;-18597.69;;;-139.74;0.00
76496;BME280;65329;52.544;4.662;2023-04-22T04:28:10;-18597.69;;;-139.74;0.00
76496;BME280;65329;52.544;4.662;2023-04-22T04:30:43;-18597.69;;;-139.74;0.00
76496;BME280;65329;52.544;4.662;2023-04-22T04:33:11;-18597.69;;;-139.74;0.00
76496;BME280;65329;52.544;4.662;2023-04-22T04:35:50;-18597.69;;;-139.74;0.00
76496;BME280;65329;52.544;4.662;2023-04-22T04:38:21;-18597.69;;;-139.74;0.00
76496;BME280;65329;52.544;4.662;2023-04-22T04:40:51;-18597.69;;;-139.74;0.00
76496;BME280;65329;52.544;4.662;2023-04-22T04:43:22;-18597.69;;;-139.74;0.00
76496;BME280;65329;52.544;4.662;2023-04-22T04:46:14;-18597.69;;;-139.74;0.00
76496;BME280;65329;52.544;4.662;2023-04-22T04:48:44;-18597.69;;;-139.74;0.00
76496;BME280;65329;52.544;4.662;2023-04-22T04:51:12;-18597.69;;;-139.74;0.00
76496;BME280;65329;52.544;4.662;2023-04-22T04:53:47;-18597.69;;;-139.74;0.00
76496;BME280;65329;52.544;4.662;2023-04-22T04:56:15;-18597.69;;;-139.74;0.00
76496;BME280;65329;52.544;4.662;2023-04-22T04:58:43;-18597.69;;;-139.74;0.00
76496;BME280;65329;52.544;4.662;2023-04-22T05:01:16;-18597.69;;;-139.74;0.00
76496;BME280;65329;52.544;4.662;2023-04-22T05:03:44;-18597.69;;;-139.74;0.00
76496;BME280;65329;52.544;4.662;2023-04-22T05:06:15;-18597.69;;;-139.74;0.00
76496;BME280;65329;52.544;4.662;2023-04-22T05:08:46;-18597.69;;;-139.74;0.00
76496;BME280;65329;52.544;4.662;2023-04-22T05:11:13;-18597.69;;;-139.74;0.00
76496;BME280;65329;52.544;4.662;2023-04-22T05:13:44;-18597.69;;;-139.74;0.00
76496;BME280;65329;52.544;4.662;2023-04-22T05:16:17;-18597.69;;;-139.74;0.00
76496;BME280;65329;52.544;4.662;2023-04-22T05:18:45;-18597.69;;;-139.74;0.00
76496;BME280;65329;52.544;4.662;2023-04-22T05:21:21;-18597.69;;;-139.74;0.00
76496;BME280;65329;52.544;4.662;2023-04-22T05:23:48;-18597.69;;;-139.74;0.00
76496;BME280;65329;52.544;4.662;2023-04-22T05:26:15;-18597.69;;;-139.74;0.00
76496;BME280;65329;52.544;4.662;2023-04-22T05:28:46;-18597.69;;;-139.74;0.00
76496;BME280;65329;52.544;4.662;2023-04-22T05:31:14;-18597.69;;;-139.74;0.00
76496;BME280;65329;52.544;4.662;2023-04-22T05:33:41;-18597.69;;;-139.74;0.00
76496;BME280;65329;52.544;4.662;2023-04-22T05:36:08;-18597.69;;;-139.74;0.00
76496;BME280;65329;52.544;4.662;2023-04-22T05:38:35;-18597.69;;;-139.74;0.00
76496;BME280;65329;52.544;4.662;2023-04-22T05:41:03;-18597.69;;;-139.74;0.00
76496;BME280;65329;52.544;4.662;2023-04-22T05:43:30;-18597.69;;;-139.74;0.00
76496;BME280;65329;52.544;4.662;2023-04-22T05:46:10;-18597.69;;;-139.74;0.00
76496;BME280;65329;52.544;4.662;2023-04-22T05:48:39;-18597.69;;;-139.74;0.00
76496;BME280;65329;52.544;4.662;2023-04-22T05:51:14;-18597.69;;;-139.74;0.00
76496;BME280;65329;52.544;4.662;2023-04-22T05:53:41;-18597.69;;;-139.74;0.00
76496;BME280;65329;52.544;4.662;2023-04-22T05:56:09;-18597.69;;;-139.74;0.00
76496;BME280;65329;52.544;4.662;2023-04-22T05:58:36;-18597.69;;;-139.74;0.00
76496;BME280;65329;52.544;4.662;2023-04-22T06:01:13;-18597.69;;;-139.74;0.00
76496;BME280;65329;52.544;4.662;2023-04-22T06:03:41;-18597.69;;;-139.74;0.00
76496;BME280;65329;52.544;4.662;2023-04-22T06:06:08;-18597.69;;;-139.74;0.00
76496;BME280;65329;52.544;4.662;2023-04-22T06:08:35;-18597.69;;;-139.74;0.00
76496;BME280;65329;52.544;4.662;2023-04-22T06:11:03;-18597.69;;;-139.74;0.00
76496;BME280;65329;52.544;4.662;2023-04-22T06:13:33;-18597.69;;;-139.74;0.00
76496;BME280;65329;52.544;4.662;2023-04-22T06:16:05;-18597.69;;;-139.74;0.00
76496;BME280;65329;52.544;4.662;2023-04-22T06:18:37;-18597.69;;;-139.74;0.00
76496;BME280;65329;52.544;4.662;2023-04-22T06:21:11;-18597.69;;;-139.74;0.00
76496;BME280;65329;52.544;4.662;2023-04-22T06:23:38;-18597.69;;;-139.74;0.00
76496;BME280;65329;52.544;4.662;2023-04-22T06:26:06;-18597.69;;;-139.74;0.00
76496;BME280;65329;52.544;4.662;2023-04-22T06:28:35;-18597.69;;;-139.74;0.00
76496;BME280;65329;52.544;4.662;2023-04-22T06:31:09;-18597.69;;;-139.74;0.00
76496;BME280;65329;52.544;4.662;2023-04-22T06:33:37;-18597.69;;;-139.74;0.00
76496;BME280;65329;52.544;4.662;2023-04-22T06:36:04;-18597.69;;;-139.74;0.00
76496;BME280;65329;52.544;4.662;2023-04-22T06:38:32;-18597.69;;;-139.74;0.00
76496;BME280;65329;52.544;4.662;2023-04-22T06:41:36;-18597.69;;;-139.74;0.00
76496;BME280;65329;52.544;4.662;2023-04-22T06:44:18;-18597.69;;;-139.74;0.00
76496;BME280;65329;52.544;4.662;2023-04-22T06:47:06;-18597.69;;;-139.74;0.00
76496;BME280;65329;52.544;4.662;2023-04-22T06:49:42;-18597.69;;;-139.74;0.00
76496;BME280;65329;52.544;4.662;2023-04-22T06:52:23;-18596.16;;;-139.74;0.00
76496;BME280;65329;52.544;4.662;2023-04-22T06:54:53;-18334.06;;;-139.74;0.00
76496;BME280;65329;52.544;4.662;2023-04-22T06:57:20;-18334.06;;;-139.74;0.00
76496;BME280;65329;52.544;4.662;2023-04-22T06:59:47;-18596.16;;;-139.74;0.00
76496;BME280;65329;52.544;4.662;2023-04-22T07:02:14;-18334.06;;;-139.74;0.00
76496;BME280;65329;52.544;4.662;2023-04-22T07:04:43;-18334.06;;;-139.74;0.00
76496;BME280;65329;52.544;4.662;2023-04-22T07:07:11;-18071.97;;;-139.74;0.00
76496;BME280;65329;52.544;4.662;2023-04-22T07:09:39;-17809.88;;;-139.74;0.00
76496;BME280;65329;52.544;4.662;2023-04-22T07:12:07;-16236.81;;;-139.74;0.00
76496;BME280;65329;52.544;4.662;2023-04-22T07:14:34;-16499.03;;;-139.74;0.00
76496;BME280;65329;52.544;4.662;2023-04-22T07:17:01;-17547.72;;;-139.74;0.00
76496;BME280;65329;52.544;4.662;2023-04-22T07:19:27;-17809.88;;;-139.74;0.00
76496;BME280;65329;52.544;4.662;2023-04-22T07:21:55;-14925.41;;;-139.74;0.00
76496;BME280;65329;52.544;4.662;2023-04-22T07:24:22;-16761.22;;;-139.74;0.00
76496;BME280;65329;52.544;4.662;2023-04-22T07:26:49;-13613.59;;;-139.74;0.00
76496;BME280;65329;52.544;4.662;2023-04-22T07:29:16;-2050.06;;;-139.74;0.00
76496;BME280;65329;52.544;4.662;2023-04-22T07:31:42;-4681.19;;;-139.74;0.00
76496;BME280;65329;52.544;4.662;2023-04-22T07:34:10;6117.88;;;-139.74;0.00
76496;BME280;65329;52.544;4.662;2023-04-22T07:36:36;-5207.22;;;-139.74;0.00
76496;BME280;65329;52.544;4.662;2023-04-22T07:39:03;-207.19;;;-139.74;0.00
76496;BME280;65329;52.544;4.662;2023-04-22T07:41:30;7700.78;;;-139.74;0.00
76496;BME280;65329;52.544;4.662;2023-04-22T07:43:58;16947.22;;;-139.74;0.00
76496;BME280;65329;52.544;4.662;2023-04-22T07:46:26;16947.22;;;-139.74;0.00
76496;BME280;65329;52.544;4.662;2023-04-22T07:48:53;13246.00;;;-139.74;0.00
76496;BME280;65329;52.544;4.662;2023-04-22T07:51:20;26480.84;;;-139.74;0.00
76496;BME280;65329;52.544;4.662;2023-04-22T07:53:48;41394.75;;;-139.74;0.00
76496;BME280;65329;52.544;4.662;2023-04-22T07:56:14;56327.78;;;-139.74;0.00
76496;BME280;65329;52.544;4.662;2023-04-22T07:58:41;73874.09;;;-139.74;0.00
76496;BME280;65329;52.544;4.662;2023-04-22T08:01:08;-207.19;;;-139.74;0.00
76496;BME280;65329;52.544;4.662;2023-04-22T08:03:35;-7573.38;;;-139.74;0.00
76496;BME280;65329;52.544;4.662;2023-04-22T08:06:02;-18597.69;;;-139.74;0.00
76496;BME280;65329;52.544;4.662;2023-04-22T08:08:29;-18597.69;;;-139.74;0.00
76496;BME280;65329;52.544;4.662;2023-04-22T08:10:56;-18597.69;;;-139.74;0.00
76496;BME280;65329;52.544;4.662;2023-04-22T08:13:24;-18597.69;;;-139.74;0.00
76496;BME280;65329;52.544;4.662;2023-04-22T08:15:51;-18597.69;;;-139.74;0.00
76496;BME280;65329;52.544;4.662;2023-04-22T08:18:18;-18597.69;;;-139.74;0.00
76496;BME280;65329;52.544;4.662;2023-04-22T08:20:46;-18597.69;;;-139.74;0.00
76496;BME280;65329;52.544;4.662;2023-04-22T08:23:13;-17285.59;;;-139.74;0.00
76496;BME280;65329;52.544;4.662;2023-04-22T08:25:40;-4944.22;;;-139.74;0.00
76496;BME280;65329;52.544;4.662;2023-04-22T08:28:07;11557.66;;;-139.74;0.00
76496;BME280;65329;52.544;4.662;2023-04-22T08:30:34;117940.31;;;-139.74;0.00
76496;BME280;65329;52.544;4.662;2023-04-22T08:33:01;117940.31;;;-139.74;0.00
76496;BME280;65329;52.544;4.662;2023-04-22T08:35:28;117940.31;;;-139.74;0.00
76496;BME280;65329;52.544;4.662;2023-04-22T08:37:55;117940.31;;;-139.74;0.00
76496;BME280;65329;52.544;4.662;2023-04-22T08:40:22;117940.31;;;-139.74;0.00
76496;BME280;65329;52.544;4.662;2023-04-22T08:42:50;117940.31;;;-139.74;0.00
76496;BME280;65329;52.544;4.662;2023-04-22T08:45:17;117940.31;;;-139.74;0.00
76496;BME280;65329;52.544;4.662;2023-04-22T08:47:46;117940.31;;;-139.74;0.00
76496;BME280;65329;52.544;4.662;2023-04-22T08:50:14;117940.31;;;-139.74;0.00
76496;BME280;65329;52.544;4.662;2023-04-22T08:52:41;117940.31;;;-139.74;0.00
76496;BME280;65329;52.544;4.662;2023-04-22T08:55:09;117940.31;;;-139.74;0.00
76496;BME280;65329;52.544;4.662;2023-04-22T08:57:37;117940.31;;;-139.74;0.00
76496;BME280;65329;52.544;4.662;2023-04-22T09:00:05;117940.31;;;-139.74;0.00
76496;BME280;65329;52.544;4.662;2023-04-22T09:02:37;117940.31;;;-139.74;0.00
76496;BME280;65329;52.544;4.662;2023-04-22T09:05:08;117940.31;;;-139.74;0.00
76496;BME280;65329;52.544;4.662;2023-04-22T09:07:37;117940.31;;;-139.74;0.00
76496;BME280;65329;52.544;4.662;2023-04-22T09:10:05;117940.31;;;-139.74;0.00
76496;BME280;65329;52.544;4.662;2023-04-22T09:12:33;117940.31;;;-139.74;0.00
76496;BME280;65329;52.544;4.662;2023-04-22T09:15:07;117940.31;;;-139.74;0.00
76496;BME280;65329;52.544;4.662;2023-04-22T09:17:35;117940.31;;;-139.74;0.00
76496;BME280;65329;52.544;4.662;2023-04-22T09:20:05;117940.31;;;-139.74;0.00
76496;BME280;65329;52.544;4.662;2023-04-22T09:22:44;117940.31;;;-139.74;0.00
76496;BME280;65329;52.544;4.662;2023-04-22T09:25:22;117940.31;;;-139.74;0.00
76496;BME280;65329;52.544;4.662;2023-04-22T09:27:51;117940.31;;;-139.74;0.00
76496;BME280;65329;52.544;4.662;2023-04-22T09:30:27;117940.31;;;-139.74;0.00
76496;BME280;65329;52.544;4.662;2023-04-22T09:33:00;117940.31;;;-139.74;0.00
76496;BME280;65329;52.544;4.662;2023-04-22T09:35:29;117940.31;;;-139.74;0.00
76496;BME280;65329;52.544;4.662;2023-04-22T09:37:58;117940.31;;;-139.74;0.00
76496;BME280;65329;52.544;4.662;2023-04-22T09:40:29;117940.31;;;-139.74;0.00
76496;BME280;65329;52.544;4.662;2023-04-22T09:42:59;117940.31;;;-139.74;0.00
76496;BME280;65329;52.544;4.662;2023-04-22T09:45:35;117940.31;;;-139.74;0.00
76496;BME280;65329;52.544;4.662;2023-04-22T09:50:32;48931.28;;;-139.74;0.00
76496;BME280;65329;52.544;4.662;2023-04-22T09:53:03;48939.63;;;-139.74;0.00
76496;BME280;65329;52.544;4.662;2023-04-22T09:55:33;48345.91;;;-139.74;0.00
76496;BME280;65329;52.544;4.662;2023-04-22T09:58:06;48941.69;;;-139.74;0.00
76496;BME280;65329;52.544;4.662;2023-04-22T10:00:39;48962.53;;;-139.74;0.00
76496;BME280;65329;52.544;4.662;2023-04-22T10:03:06;48956.28;;;-139.74;0.00
76496;BME280;65329;52.544;4.662;2023-04-22T10:05:38;48975.03;;;-139.74;0.00
76496;BME280;65329;52.544;4.662;2023-04-22T10:08:08;49091.72;;;-139.74;0.00
76496;BME280;65329;52.544;4.662;2023-04-22T10:10:36;49083.38;;;-139.74;0.00
76496;BME280;65329;52.544;4.662;2023-04-22T10:13:04;49089.63;;;-139.74;0.00
76496;BME280;65329;52.544;4.662;2023-04-22T10:15:34;49100.03;;;-139.74;0.00
76496;BME280;65329;52.544;4.662;2023-04-22T10:18:04;49093.78;;;-139.74;0.00
76496;BME280;65329;52.544;4.662;2023-04-22T10:20:39;49087.53;;;-139.74;0.00
76496;BME280;65329;52.544;4.662;2023-04-22T10:23:13;49089.63;;;-139.74;0.00
76496;BME280;65329;52.544;4.662;2023-04-22T10:25:41;49072.97;;;-139.74;0.00
76496;BME280;65329;52.544;4.662;2023-04-22T10:28:10;48991.69;;;-139.74;0.00
76496;BME280;65329;52.544;4.662;2023-04-22T10:30:38;46021.94;;;-139.74;0.00
76496;BME280;65329;52.544;4.662;2023-04-22T10:41:13;48985.44;;;-139.74;0.00
76496;BME280;65329;52.544;4.662;2023-04-22T10:43:48;48995.88;;;-139.74;0.00
76496;BME280;65329;52.544;4.662;2023-04-22T10:49:07;49004.22;;;-139.74;0.00
76496;BME280;65329;52.544;4.662;2023-04-22T10:54:06;49079.22;;;-139.74;0.00
76496;BME280;65329;52.544;4.662;2023-04-22T10:56:33;49002.13;;;-139.74;0.00
76496;BME280;65329;52.544;4.662;2023-04-22T10:59:16;49004.22;;;-139.74;0.00
76496;BME280;65329;52.544;4.662;2023-04-22T11:01:43;48962.53;;;-139.74;0.00
76496;BME280;65329;52.544;4.662;2023-04-22T11:04:22;48906.28;;;-139.74;0.00
76496;BME280;65329;52.544;4.662;2023-04-22T11:15:05;-5441.44;;;-139.74;0.00
76496;BME280;65329;52.544;4.662;2023-04-22T11:17:34;-14663.09;;;-139.74;0.00
76496;BME280;65329;52.544;4.662;2023-04-22T11:20:01;-18596.16;;;-139.74;0.00
76496;BME280;65329;52.544;4.662;2023-04-22T11:22:41;-18597.69;;;-139.74;0.00
76496;BME280;65329;52.544;4.662;2023-04-22T11:25:07;-18597.69;;;-139.74;0.00
76496;BME280;65329;52.544;4.662;2023-04-22T11:27:38;-18597.69;;;-139.74;0.00
76496;BME280;65329;52.544;4.662;2023-04-22T11:30:11;-18597.69;;;-139.74;0.00
76496;BME280;65329;52.544;4.662;2023-04-22T11:32:40;-18597.69;;;-139.74;0.00
76496;BME280;65329;52.544;4.662;2023-04-22T11:35:09;-18597.69;;;-139.74;0.00
76496;BME280;65329;52.544;4.662;2023-04-22T11:37:44;-18597.69;;;-139.74;0.00
76496;BME280;65329;52.544;4.662;2023-04-22T11:40:17;-18597.69;;;-139.74;0.00
76496;BME280;65329;52.544;4.662;2023-04-22T11:42:47;-18597.69;;;-139.74;0.00
76496;BME280;65329;52.544;4.662;2023-04-22T11:45:15;-18597.69;;;-139.74;0.00
76496;BME280;65329;52.544;4.662;2023-04-22T11:47:42;-18597.69;;;-139.74;0.00
76496;BME280;65329;52.544;4.662;2023-04-22T11:50:12;-18597.69;;;-139.74;0.00
76496;BME280;65329;52.544;4.662;2023-04-22T11:55:12;-18597.69;;;-139.74;0.00
76496;BME280;65329;52.544;4.662;2023-04-22T11:57:39;-18597.69;;;-139.74;0.00
76496;BME280;65329;52.544;4.662;2023-04-22T12:00:10;-18597.69;;;-139.74;0.00
76496;BME280;65329;52.544;4.662;2023-04-22T12:02:38;-18597.69;;;-139.74;0.00
76496;BME280;65329;52.544;4.662;2023-04-22T12:05:14;-18597.69;;;-139.74;0.00
76496;BME280;65329;52.544;4.662;2023-04-22T12:07:41;-18597.69;;;-139.74;0.00
76496;BME280;65329;52.544;4.662;2023-04-22T12:10:09;-18597.69;;;-139.74;0.00
76496;BME280;65329;52.544;4.662;2023-04-22T12:12:38;-18597.69;;;-139.74;0.00
76496;BME280;65329;52.544;4.662;2023-04-22T12:15:09;-18597.69;;;-139.74;0.00
76496;BME280;65329;52.544;4.662;2023-04-22T12:17:39;-18597.69;;;-139.74;0.00
76496;BME280;65329;52.544;4.662;2023-04-22T12:20:10;-18597.69;;;-139.74;0.00
76496;BME280;65329;52.544;4.662;2023-04-22T12:22:38;-18597.69;;;-139.74;0.00
76496;BME280;65329;52.544;4.662;2023-04-22T12:25:05;-18597.69;;;-139.74;0.00
76496;BME280;65329;52.544;4.662;2023-04-22T12:27:33;-18597.69;;;-139.74;0.00
76496;BME280;65329;52.544;4.662;2023-04-22T12:30:02;-18597.69;;;-139.74;0.00
76496;BME280;65329;52.544;4.662;2023-04-22T12:32:29;-18597.69;;;-139.74;0.00
76496;BME280;65329;52.544;4.662;2023-04-22T12:34:58;-18597.69;;;-139.74;0.00
76496;BME280;65329;52.544;4.662;2023-04-22T12:37:25;-18597.69;;;-139.74;0.00
76496;BME280;65329;52.544;4.662;2023-04-22T12:39:52;-18597.69;;;-139.74;0.00
76496;BME280;65329;52.544;4.662;2023-04-22T12:42:21;-18597.69;;;-139.74;0.00
76496;BME280;65329;52.544;4.662;2023-04-22T12:44:48;-18334.06;;;-139.74;0.00
76496;BME280;65329;52.544;4.662;2023-04-22T12:47:15;-14663.09;;;-139.74;0.00
76496;BME280;65329;52.544;4.662;2023-04-22T12:49:43;-15187.72;;;-139.74;0.00
76496;BME280;65329;52.544;4.662;2023-04-22T12:52:14;-14138.38;;;-139.74;0.00
76496;BME280;65329;52.544;4.662;2023-04-22T12:54:40;-14138.38;;;-139.74;0.00
76496;BME280;65329;52.544;4.662;2023-04-22T12:57:07;-17285.59;;;-139.74;0.00
76496;BME280;65329;52.544;4.662;2023-04-22T12:59:34;-16499.03;;;-139.74;0.00
76496;BME280;65329;52.544;4.662;2023-04-22T13:02:01;-18596.16;;;-139.74;0.00
76496;BME280;65329;52.544;4.662;2023-04-22T13:04:30;-18071.97;;;-139.74;0.00
76496;BME280;65329;52.544;4.662;2023-04-22T13:06:57;-18334.06;;;-139.74;0.00
76496;BME280;65329;52.544;4.662;2023-04-22T13:09:24;-18334.06;;;-139.74;0.00
76496;BME280;65329;52.544;4.662;2023-04-22T13:11:52;-18071.97;;;-139.74;0.00
76496;BME280;65329;52.544;4.662;2023-04-22T13:14:20;-17285.59;;;-139.74;0.00
76496;BME280;65329;52.544;4.662;2023-04-22T13:16:47;-16236.81;;;-139.74;0.00